createdAt,value
2018-11-11T00:03:17.808Z,11.90
2018-11-11T00:08:39.838Z,12.00
2018-11-11T00:14:01.664Z,12.20
2018-11-11T00:19:24.520Z,12.30
2018-11-11T00:24:46.914Z,12.50
2018-11-11T00:30:13.626Z,12.50
2018-11-11T00:35:35.604Z,12.60
2018-11-11T00:41:00.538Z,12.70
2018-11-11T00:46:22.642Z,12.70
2018-11-11T00:51:44.867Z,12.70
2018-11-11T00:57:07.183Z,12.70
2018-11-11T01:02:30.454Z,12.70
2018-11-11T01:07:52.304Z,12.60
2018-11-11T01:13:14.369Z,12.70
2018-11-11T01:18:36.345Z,12.70
2018-11-11T01:23:58.566Z,12.70
2018-11-11T01:29:20.454Z,12.70
2018-11-11T01:34:42.571Z,12.60
2018-11-11T01:40:04.401Z,12.60
2018-11-11T01:45:26.697Z,12.60
2018-11-11T01:50:48.658Z,12.50
2018-11-11T01:56:10.756Z,12.60
2018-11-11T02:01:33.252Z,12.70
2018-11-11T02:06:55.216Z,12.80
2018-11-11T02:12:17.304Z,12.80
2018-11-11T02:17:39.381Z,12.80
2018-11-11T02:23:01.405Z,12.70
2018-11-11T02:28:23.211Z,12.70
2018-11-11T02:33:45.280Z,12.60
2018-11-11T02:39:08.487Z,12.60
2018-11-11T02:44:30.697Z,12.60
2018-11-11T02:49:52.646Z,12.60
2018-11-11T02:55:15.045Z,12.60
2018-11-11T03:00:37.330Z,12.60
2018-11-11T03:05:59.561Z,12.60
2018-11-11T03:11:21.718Z,12.60
2018-11-11T03:16:43.806Z,12.60
2018-11-11T03:22:06.372Z,12.60
2018-11-11T03:27:28.729Z,12.60
2018-11-11T03:32:50.720Z,12.60
2018-11-11T03:38:12.914Z,12.60
2018-11-11T03:43:34.855Z,12.50
2018-11-11T03:48:57.026Z,12.60
2018-11-11T03:54:19.042Z,12.60
2018-11-11T03:59:41.318Z,12.60
2018-11-11T04:05:03.148Z,12.60
2018-11-11T04:10:25.767Z,12.60
2018-11-11T04:15:48.211Z,12.60
2018-11-11T04:21:10.095Z,12.60
2018-11-11T04:26:32.192Z,12.60
2018-11-11T04:31:53.953Z,12.50
2018-11-11T04:37:16.169Z,12.50
2018-11-11T04:42:38.310Z,12.50
2018-11-11T04:48:00.435Z,12.50
2018-11-11T04:53:22.797Z,12.50
2018-11-11T04:58:44.698Z,12.60
2018-11-11T05:04:06.952Z,12.60
2018-11-11T05:09:28.781Z,12.70
2018-11-11T05:14:50.996Z,12.70
2018-11-11T05:20:13.571Z,12.80
2018-11-11T05:25:35.598Z,12.80
2018-11-11T05:30:57.791Z,12.80
2018-11-11T05:36:19.645Z,12.80
2018-11-11T05:41:41.789Z,12.80
2018-11-11T05:47:03.681Z,12.70
2018-11-11T05:52:25.729Z,12.70
2018-11-11T05:57:49.166Z,12.60
2018-11-11T06:03:11.329Z,12.60
2018-11-11T06:08:33.154Z,12.50
2018-11-11T06:13:55.277Z,12.50
2018-11-11T06:19:17.221Z,12.40
2018-11-11T06:24:39.542Z,12.40
2018-11-11T06:30:01.253Z,12.40
2018-11-11T06:35:23.442Z,12.40
2018-11-11T06:40:45.272Z,12.30
2018-11-11T06:46:07.339Z,12.20
2018-11-11T06:51:29.193Z,12.30
2018-11-11T06:56:51.319Z,12.30
2018-11-11T07:02:13.088Z,12.30
2018-11-11T07:07:35.227Z,12.30
2018-11-11T07:12:57.182Z,12.30
2018-11-11T07:18:19.307Z,12.20
2018-11-11T07:23:41.552Z,12.20
2018-11-11T07:29:04.276Z,12.20
2018-11-11T07:34:26.344Z,12.20
2018-11-11T07:39:48.736Z,12.30
2018-11-11T07:45:10.793Z,12.30
2018-11-11T07:50:32.930Z,12.40
2018-11-11T07:55:54.866Z,12.50
2018-11-11T08:01:17.046Z,12.50
2018-11-11T08:06:38.924Z,12.60
2018-11-11T08:12:02.471Z,12.60
2018-11-11T08:17:24.373Z,12.60
2018-11-11T08:22:46.519Z,12.70
2018-11-11T08:28:08.345Z,12.70
2018-11-11T08:33:30.529Z,12.70
2018-11-11T08:38:53.208Z,12.80
2018-11-11T08:44:15.392Z,12.70
2018-11-11T08:49:37.820Z,12.70
2018-11-11T08:55:00.416Z,12.70
2018-11-11T09:00:22.772Z,12.70
2018-11-11T09:05:45.181Z,12.70
2018-11-11T09:11:07.448Z,12.70
2018-11-11T09:16:29.473Z,12.70
2018-11-11T09:21:51.297Z,12.80
2018-11-11T09:27:13.474Z,12.90
2018-11-11T09:32:35.374Z,12.90
2018-11-11T09:37:57.452Z,13.10
2018-11-11T09:43:19.193Z,13.20
2018-11-11T09:48:41.461Z,13.20
2018-11-11T09:54:03.872Z,13.50
2018-11-11T09:59:26.169Z,13.60
2018-11-11T10:04:56.530Z,13.60
2018-11-11T10:10:54.077Z,13.60
2018-11-11T10:16:23.264Z,13.50
2018-11-11T10:23:54.005Z,13.30
2018-11-11T10:29:34.706Z,13.70
2018-11-11T10:35:28.714Z,14.30
2018-11-11T10:39:49.074Z,14.60
2018-11-11T10:44:05.435Z,14.80
2018-11-11T10:48:22.370Z,14.90
2018-11-11T10:52:34.344Z,14.80
2018-11-11T10:56:46.349Z,14.70
2018-11-11T11:01:03.476Z,14.50
2018-11-11T11:05:15.356Z,14.50
2018-11-11T11:09:27.559Z,14.60
2018-11-11T11:13:39.376Z,14.60
2018-11-11T11:17:51.373Z,14.60
2018-11-11T11:22:03.889Z,14.70
2018-11-11T11:26:15.691Z,14.70
2018-11-11T11:30:29.457Z,14.80
2018-11-11T11:34:41.486Z,14.90
2018-11-11T11:38:53.364Z,14.90
2018-11-11T11:43:05.262Z,14.90
2018-11-11T11:47:17.313Z,14.90
2018-11-11T11:51:29.297Z,15.00
2018-11-11T11:55:42.362Z,15.00
2018-11-11T11:59:54.672Z,15.00
2018-11-11T12:04:06.959Z,15.10
2018-11-11T12:08:19.553Z,15.00
2018-11-11T12:12:32.005Z,15.00
2018-11-11T12:16:43.869Z,15.00
2018-11-11T12:20:55.755Z,15.00
2018-11-11T12:25:08.266Z,15.00
2018-11-11T12:29:20.612Z,15.00
2018-11-11T12:33:32.761Z,15.00
2018-11-11T12:37:45.265Z,15.00
2018-11-11T12:41:57.311Z,15.00
2018-11-11T12:46:09.402Z,15.00
2018-11-11T12:50:21.548Z,15.00
2018-11-11T12:54:33.641Z,15.00
2018-11-11T12:58:46.069Z,15.00
2018-11-11T13:02:57.996Z,15.10
2018-11-11T13:07:11.193Z,15.20
2018-11-11T13:11:23.378Z,15.20
2018-11-11T13:15:35.529Z,15.10
2018-11-11T13:19:47.595Z,15.10
2018-11-11T13:23:59.605Z,15.10
2018-11-11T13:28:11.686Z,15.10
2018-11-11T13:32:23.801Z,15.00
2018-11-11T13:36:36.342Z,14.90
2018-11-11T13:40:48.361Z,14.90
2018-11-11T13:45:00.270Z,14.80
2018-11-11T13:49:12.297Z,14.90
2018-11-11T13:53:24.610Z,14.90
2018-11-11T13:57:36.487Z,14.80
2018-11-11T14:01:48.579Z,14.80
2018-11-11T14:06:03.219Z,14.60
2018-11-11T14:10:18.843Z,14.60
2018-11-11T14:14:33.889Z,14.60
2018-11-11T14:18:49.272Z,14.50
2018-11-11T14:23:03.952Z,14.40
2018-11-11T14:27:18.870Z,14.40
2018-11-11T14:31:35.302Z,14.30
2018-11-11T14:35:51.314Z,14.30
2018-11-11T14:40:06.822Z,14.20
2018-11-11T14:44:21.294Z,14.20
2018-11-11T14:48:36.902Z,14.10
2018-11-11T14:52:51.397Z,14.10
2018-11-11T14:57:05.496Z,14.10
2018-11-11T15:01:20.896Z,14.10
2018-11-11T15:05:35.855Z,14.10
2018-11-11T15:09:50.897Z,14.00
2018-11-11T15:14:07.083Z,14.10
2018-11-11T15:18:22.319Z,14.00
2018-11-11T15:22:36.212Z,13.90
2018-11-11T15:26:48.922Z,13.80
2018-11-11T15:31:01.708Z,13.80
2018-11-11T15:35:17.671Z,13.80
2018-11-11T15:39:32.873Z,13.80
2018-11-11T15:43:46.057Z,13.80
2018-11-11T15:48:01.521Z,13.70
2018-11-11T15:52:17.200Z,13.70
2018-11-11T15:56:32.032Z,13.70
2018-11-11T16:00:47.242Z,13.60
2018-11-11T16:04:59.542Z,13.60
2018-11-11T16:09:14.518Z,13.60
2018-11-11T16:13:29.825Z,13.50
2018-11-11T16:17:45.438Z,13.50
2018-11-11T16:22:00.557Z,13.50
2018-11-11T16:26:15.191Z,13.40
2018-11-11T16:30:32.734Z,13.40
2018-11-11T16:34:49.031Z,13.40
2018-11-11T16:39:02.484Z,13.40
2018-11-11T16:43:16.480Z,13.30
2018-11-11T16:47:31.010Z,13.40
2018-11-11T16:51:44.559Z,13.30
2018-11-11T16:55:59.202Z,13.20
2018-11-11T17:00:15.114Z,13.20
2018-11-11T17:04:29.517Z,13.10
2018-11-11T17:08:46.545Z,13.00
2018-11-11T17:13:00.893Z,12.90
2018-11-11T17:17:16.869Z,12.80
2018-11-11T17:21:32.529Z,12.90
2018-11-11T17:25:46.584Z,12.70
2018-11-11T17:29:59.919Z,12.70
2018-11-11T17:34:20.138Z,12.60
2018-11-11T17:38:34.809Z,12.60
2018-11-11T17:42:50.043Z,12.60
2018-11-11T17:47:05.832Z,12.60
2018-11-11T17:51:20.590Z,12.60
2018-11-11T17:55:35.065Z,12.60
2018-11-11T17:59:52.668Z,12.60
2018-11-11T18:04:08.033Z,12.60
2018-11-11T18:08:23.909Z,12.50
2018-11-11T18:12:37.940Z,12.50
2018-11-11T18:16:50.996Z,12.50
2018-11-11T18:21:06.323Z,12.50
2018-11-11T18:25:20.096Z,12.50
2018-11-11T18:29:33.325Z,12.60
2018-11-11T18:33:46.561Z,12.70
2018-11-11T18:38:00.207Z,12.70
2018-11-11T18:42:13.626Z,12.70
2018-11-11T18:46:29.110Z,12.80
2018-11-11T18:50:44.661Z,12.80
2018-11-11T18:55:00.014Z,12.90
2018-11-11T18:59:14.741Z,13.00
2018-11-11T19:03:29.436Z,13.00
2018-11-11T19:07:44.499Z,13.00
2018-11-11T19:11:58.884Z,13.00
2018-11-11T19:16:13.054Z,13.00
2018-11-11T19:20:26.654Z,13.00
2018-11-11T19:24:40.560Z,12.90
2018-11-11T19:28:55.280Z,13.00
2018-11-11T19:33:09.773Z,12.90
2018-11-11T19:37:23.779Z,12.80
2018-11-11T19:41:37.849Z,12.70
2018-11-11T19:45:53.071Z,12.80
2018-11-11T19:50:07.040Z,12.80
2018-11-11T19:54:22.258Z,12.80
2018-11-11T19:58:37.368Z,12.70
2018-11-11T20:02:52.732Z,12.80
2018-11-11T20:07:06.141Z,12.80
2018-11-11T20:11:18.670Z,12.80
2018-11-11T20:15:32.322Z,12.80
2018-11-11T20:19:44.595Z,12.80
2018-11-11T20:23:56.819Z,12.80
2018-11-11T20:28:08.992Z,12.70
2018-11-11T20:32:21.112Z,12.70
2018-11-11T20:36:33.121Z,12.70
2018-11-11T20:40:45.079Z,12.70
2018-11-11T20:45:00.465Z,12.70
2018-11-11T20:49:12.744Z,12.80
2018-11-11T20:53:24.540Z,12.90
2018-11-11T20:57:38.792Z,12.90
2018-11-11T21:01:51.067Z,12.90
2018-11-11T21:06:03.316Z,12.80
2018-11-11T21:10:18.910Z,12.80
2018-11-11T21:14:31.975Z,12.80
2018-11-11T21:18:44.075Z,12.70
2018-11-11T21:22:56.196Z,12.70
2018-11-11T21:27:08.719Z,12.60
2018-11-11T21:31:20.712Z,12.60
2018-11-11T21:35:32.769Z,12.60
2018-11-11T21:39:44.815Z,12.60
2018-11-11T21:43:56.876Z,12.70
2018-11-11T21:48:10.825Z,12.70
2018-11-11T21:52:22.925Z,12.60
2018-11-11T21:56:34.869Z,12.60
2018-11-11T22:00:46.756Z,12.60
2018-11-11T22:04:58.768Z,12.60
2018-11-11T22:09:12.061Z,12.60
2018-11-11T22:13:24.731Z,12.60
2018-11-11T22:17:36.715Z,12.60
2018-11-11T22:21:50.976Z,12.70
2018-11-11T22:26:02.780Z,12.70
2018-11-11T22:30:14.778Z,12.60
2018-11-11T22:34:26.687Z,12.60
2018-11-11T22:38:38.751Z,12.60
2018-11-11T22:42:50.836Z,12.60
2018-11-11T22:47:02.964Z,12.70
2018-11-11T22:51:15.107Z,12.70
2018-11-11T22:55:27.232Z,12.70
2018-11-11T22:59:39.293Z,12.60
2018-11-11T23:03:51.926Z,12.60
2018-11-11T23:08:03.891Z,12.60
2018-11-11T23:12:15.768Z,12.60
2018-11-11T23:16:27.835Z,12.50
2018-11-11T23:20:39.972Z,12.50
2018-11-11T23:24:52.133Z,12.40
2018-11-11T23:29:04.152Z,12.50
2018-11-11T23:33:16.293Z,12.50
2018-11-11T23:37:28.371Z,12.50
2018-11-11T23:41:40.472Z,12.50
2018-11-11T23:45:52.627Z,12.40
2018-11-11T23:50:05.057Z,12.50
2018-11-11T23:54:16.992Z,12.60
2018-11-11T23:58:28.994Z,12.60
